Time;durP1;ratioP1;P1;durP2;ratioP2;P2;SDS_P1;SDS_P2;PMS_P1;PMS_P2;Temp;Humidity;BMP_temperature;BMP_pressure;BME280_temperature;BME280_humidity;BME280_pressure;Samples;Min_cycle;Max_cycle;Signal;HPM_P1;HPM_P2
2021/11/13 00:00:58;;;;;;;29.10;19.17;;;;;;;6.53;63.21;101064.02;1763209;80;22241;-68
2021/11/13 00:03:24;;;;;;;33.58;21.33;;;;;;;6.55;63.25;101066.09;1779094;80;21009;-67
2021/11/13 00:05:51;;;;;;;27.32;17.85;;;;;;;6.53;63.29;101060.08;1760897;80;21573;-67
2021/11/13 00:08:18;;;;;;;23.90;16.25;;;;;;;6.54;63.35;101056.52;1765451;80;21000;-68
2021/11/13 00:10:47;;;;;;;29.95;20.08;;;;;;;6.53;63.36;101055.67;1772376;79;20996;-68
2021/11/13 00:13:15;;;;;;;31.30;20.72;;;;;;;6.53;63.27;101056.14;1784772;80;21897;-68
2021/11/13 00:15:41;;;;;;;26.82;16.50;;;;;;;6.51;63.22;101063.25;1759135;80;21008;-68
2021/11/13 00:18:09;;;;;;;23.67;15.15;;;;;;;6.48;63.11;101059.02;1764137;80;20973;-69
2021/11/13 00:20:36;;;;;;;21.82;15.10;;;;;;;6.47;63.09;101051.23;1768388;80;20945;-69
2021/11/13 00:23:03;;;;;;;23.32;14.28;;;;;;;6.46;63.05;101056.06;1760988;80;21564;-68
2021/11/13 00:25:29;;;;;;;21.40;14.30;;;;;;;6.44;63.10;101051.37;1762847;80;22593;-68
2021/11/13 00:27:56;;;;;;;19.90;13.88;;;;;;;6.40;63.10;101051.16;1775542;80;21043;-68
2021/11/13 00:30:22;;;;;;;19.67;14.30;;;;;;;6.42;63.00;101053.23;1761636;80;20981;-68
2021/11/13 00:32:51;;;;;;;19.70;13.90;;;;;;;6.42;62.99;101051.91;1773576;80;20953;-67
2021/11/13 00:35:18;;;;;;;21.87;15.03;;;;;;;6.42;62.98;101051.91;1737152;80;21321;-68
2021/11/13 00:37:46;;;;;;;21.42;15.08;;;;;;;6.42;63.02;101046.20;1764235;80;21849;-67
2021/11/13 00:40:14;;;;;;;24.15;14.95;;;;;;;6.42;62.99;101050.60;1758597;80;21467;-68
2021/11/13 00:42:41;;;;;;;23.00;15.25;;;;;;;6.42;62.93;101041.42;1769938;80;20957;-67
2021/11/13 00:45:08;;;;;;;23.25;14.38;;;;;;;6.41;62.93;101051.07;1769695;80;21000;-66
2021/11/13 00:47:34;;;;;;;23.57;15.85;;;;;;;6.39;62.89;101054.70;1757455;80;21017;-66
2021/11/13 00:50:01;;;;;;;137.37;80.80;;;;;;;6.36;62.86;101055.69;1771410;80;21769;-66
2021/11/13 00:52:29;;;;;;;94.20;52.75;;;;;;;6.31;62.95;101054.63;1768346;80;21020;-66
2021/11/13 00:54:56;;;;;;;39.05;23.52;;;;;;;6.30;63.04;101054.24;1757290;80;21415;-68
2021/11/13 00:57:22;;;;;;;31.90;19.92;;;;;;;6.29;63.11;101055.17;1746849;81;20996;-68
2021/11/13 00:59:48;;;;;;;26.37;16.20;;;;;;;6.25;63.13;101063.26;1744948;81;20937;-68
2021/11/13 01:02:15;;;;;;;24.72;15.83;;;;;;;6.22;63.23;101062.11;1757846;81;21845;-70
2021/11/13 01:04:44;;;;;;;25.60;16.67;;;;;;;6.20;63.38;101066.12;1734800;81;21028;-69
2021/11/13 01:07:12;;;;;;;26.17;15.98;;;;;;;6.19;63.52;101064.90;1743575;81;21082;-69
2021/11/13 01:09:39;;;;;;;20.75;14.45;;;;;;;6.18;63.58;101066.67;1749232;81;20982;-68
2021/11/13 01:12:06;;;;;;;23.10;15.05;;;;;;;6.19;63.61;101068.37;1735311;81;21019;-69
2021/11/13 01:14:39;;;;;;;25.50;17.23;;;;;;;6.19;63.59;101068.37;1756695;81;22707;-68
2021/11/13 01:17:06;;;;;;;21.10;14.43;;;;;;;6.17;63.66;101062.79;1764041;81;21056;-69
2021/11/13 01:19:34;;;;;;;22.17;15.40;;;;;;;6.17;63.78;101064.09;1746517;81;20956;-69
2021/11/13 01:22:02;;;;;;;22.55;15.05;;;;;;;6.18;63.75;101061.89;1761409;81;21000;-68
2021/11/13 01:24:29;;;;;;;21.15;14.47;;;;;;;6.18;63.75;101067.98;1749783;81;21431;-68
2021/11/13 01:26:55;;;;;;;22.17;14.90;;;;;;;6.17;63.73;101063.64;1755622;81;21464;-68
2021/11/13 01:29:22;;;;;;;23.45;15.55;;;;;;;6.15;63.70;101065.95;1749446;81;21042;-68
2021/11/13 01:31:50;;;;;;;33.35;20.30;;;;;;;6.11;63.82;101070.52;1753546;81;21477;-69
2021/11/13 01:34:17;;;;;;;33.35;20.40;;;;;;;6.12;63.93;101066.97;1744678;81;21055;-69
2021/11/13 01:36:44;;;;;;;51.05;29.63;;;;;;;6.12;63.86;101063.03;1740102;81;20996;-68
2021/11/13 01:39:10;;;;;;;59.48;31.97;;;;;;;6.11;63.89;101063.96;1711243;83;21879;-68
2021/11/13 01:41:37;;;;;;;48.17;27.07;;;;;;;6.09;64.05;101062.34;1703439;82;20999;-68
2021/11/13 01:44:07;;;;;;;44.65;26.00;;;;;;;6.07;64.07;101068.95;1754508;81;21025;-69
2021/11/13 01:46:36;;;;;;;43.08;25.55;;;;;;;6.05;64.10;101064.26;1762140;81;20956;-69
2021/11/13 01:49:02;;;;;;;43.63;25.92;;;;;;;6.03;64.17;101064.80;1745865;81;21023;-69
2021/11/13 01:51:31;;;;;;;38.25;22.82;;;;;;;6.05;64.14;101072.59;1753634;81;20944;-69
2021/11/13 01:54:07;;;;;;;38.73;23.05;;;;;;;6.03;64.03;101070.05;1727760;81;20957;-69
2021/11/13 01:56:35;;;;;;;45.52;25.95;;;;;;;6.00;64.02;101069.74;1765563;81;21008;-69
2021/11/13 01:59:03;;;;;;;35.25;20.48;;;;;;;5.98;64.08;101072.91;1766031;81;21052;-69
2021/11/13 02:01:30;;;;;;;32.95;18.75;;;;;;;5.93;64.14;101074.05;1766508;81;20999;-69
2021/11/13 02:03:57;;;;;;;36.08;21.55;;;;;;;5.92;64.22;101069.27;1764114;81;21813;-70
2021/11/13 02:06:27;;;;;;;53.13;29.10;;;;;;;5.92;64.26;101070.58;1766860;81;20968;-69
2021/11/13 02:08:54;;;;;;;42.67;22.50;;;;;;;5.90;64.36;101065.88;1766196;81;21051;-69
2021/11/13 02:11:24;;;;;;;37.17;21.42;;;;;;;5.91;64.42;101068.03;1729729;82;20987;-69
2021/11/13 02:13:55;;;;;;;36.30;21.95;;;;;;;5.88;64.45;101070.29;1750964;81;21044;-69
2021/11/13 02:16:22;;;;;;;38.50;20.75;;;;;;;5.87;64.52;101075.61;1730237;81;22652;-69
2021/11/13 02:18:49;;;;;;;34.05;20.23;;;;;;;5.86;64.64;101070.83;1742715;81;21366;-69
2021/11/13 02:21:15;;;;;;;30.88;19.55;;;;;;;5.87;64.67;101068.59;1760385;80;21405;-69
2021/11/13 02:23:45;;;;;;;41.10;23.95;;;;;;;5.84;64.61;101071.37;1752574;81;21072;-70
2021/11/13 02:26:11;;;;;;;36.80;22.40;;;;;;;5.81;64.58;101077.24;1751020;82;21116;-69
2021/11/13 02:28:39;;;;;;;34.35;21.35;;;;;;;5.80;64.63;101070.30;1739098;81;22247;-70
2021/11/13 02:31:08;;;;;;;34.05;21.10;;;;;;;5.75;64.71;101073.98;1733231;82;20992;-69
2021/11/13 02:33:36;;;;;;;33.30;20.80;;;;;;;5.73;64.88;101078.45;1765949;81;20979;-69
2021/11/13 02:36:05;;;;;;;32.15;20.45;;;;;;;5.72;64.99;101075.91;1766894;81;21012;-69
2021/11/13 02:38:36;;;;;;;33.33;19.98;;;;;;;5.68;65.11;101078.27;1766890;80;21059;-69
2021/11/13 02:41:10;;;;;;;33.83;22.15;;;;;;;5.66;65.19;101082.28;1747429;81;21796;-69
2021/11/13 02:43:38;;;;;;;32.48;21.27;;;;;;;5.66;65.29;101080.97;1763025;81;21308;-68
2021/11/13 02:46:08;;;;;;;30.68;19.77;;;;;;;5.64;65.42;101087.22;1753218;81;20988;-68
2021/11/13 02:48:38;;;;;;;32.48;20.05;;;;;;;5.64;65.49;101091.99;1766277;81;21451;-69
2021/11/13 02:51:06;;;;;;;30.02;19.92;;;;;;;5.63;65.44;101092.07;1761886;81;21117;-69
2021/11/13 02:53:32;;;;;;;30.25;20.32;;;;;;;5.58;65.58;101096.66;1751387;81;21478;-69
2021/11/13 02:56:02;;;;;;;31.80;20.23;;;;;;;5.57;65.65;101097.13;1749648;81;21451;-70
2021/11/13 02:58:29;;;;;;;29.00;19.50;;;;;;;5.58;65.67;101094.89;1749870;81;20971;-70
2021/11/13 03:01:02;;;;;;;31.37;21.10;;;;;;;5.60;65.68;101094.38;1747492;81;20980;-69
2021/11/13 03:03:29;;;;;;;;;;;;;;;5.61;65.70;101100.02;1745169;81;21028;-69
2021/11/13 03:05:57;;;;;;;28.25;18.87;;;;;;;5.62;65.72;101096.47;1746925;81;22611;-69
2021/11/13 03:08:30;;;;;;;37.40;22.98;;;;;;;5.59;65.74;101100.52;1728809;81;21049;-69
2021/11/13 03:11:00;;;;;;;44.88;25.17;;;;;;;5.57;65.89;101097.13;1749941;81;20945;-69
2021/11/13 03:13:29;;;;;;;45.63;27.05;;;;;;;5.56;65.89;101091.50;1730267;82;21005;-69
2021/11/13 03:15:58;;;;;;;33.15;20.90;;;;;;;5.57;65.93;101100.21;1746422;82;21059;-69
2021/11/13 03:18:24;;;;;;;36.03;22.05;;;;;;;5.57;65.96;101101.52;1749837;81;21468;-69
2021/11/13 03:20:52;;;;;;;37.20;24.25;;;;;;;5.58;65.88;101099.28;1741983;81;20972;-69
2021/11/13 03:23:19;;;;;;;35.78;21.90;;;;;;;5.54;65.88;101098.59;1743253;81;21391;-69
2021/11/13 03:26:02;;;;;;;34.43;22.22;;;;;;;5.51;66.00;101113.62;1749888;81;20980;-69
2021/11/13 03:28:29;;;;;;;33.25;21.27;;;;;;;5.51;66.04;101116.23;1749985;81;21131;-69
2021/11/13 03:31:01;;;;;;;33.83;21.95;;;;;;;5.55;66.07;101111.23;1749607;81;21842;-69
2021/11/13 03:33:25;;;;;;;32.88;20.75;;;;;;;5.56;66.13;101110.30;1742193;81;21451;-69
2021/11/13 03:35:51;;;;;;;27.07;17.80;;;;;;;5.55;66.19;101111.23;1732048;81;21043;-69
2021/11/13 03:38:18;;;;;;;26.30;17.52;;;;;;;5.56;66.12;101112.92;1747808;81;20961;-69
2021/11/13 03:40:48;;;;;;;25.92;18.25;;;;;;;5.55;66.07;101112.08;1750444;81;21483;-70
2021/11/13 03:43:16;;;;;;;27.55;17.87;;;;;;;5.53;66.16;101120.48;1747015;81;23410;-69
2021/11/13 03:45:44;;;;;;;29.02;19.27;;;;;;;5.54;66.25;101125.26;1749336;81;21052;-69
2021/11/13 03:48:11;;;;;;;30.20;19.12;;;;;;;5.53;66.19;101124.41;1747811;82;21571;-69
2021/11/13 03:50:37;;;;;;;30.90;18.90;;;;;;;5.51;66.18;101122.33;1721140;81;20953;-70
2021/11/13 03:53:07;;;;;;;28.60;19.40;;;;;;;5.51;66.18;101125.41;1746844;81;21511;-70
2021/11/13 03:55:35;;;;;;;26.48;18.82;;;;;;;5.46;66.31;101127.77;1752221;80;21029;-69
2021/11/13 03:58:03;;;;;;;30.80;20.55;;;;;;;5.45;66.48;101131.77;1753082;80;21028;-69
2021/11/13 04:00:30;;;;;;;26.23;18.95;;;;;;;5.46;66.53;101129.53;1765807;80;21378;-68
2021/11/13 04:02:56;;;;;;;32.38;20.72;;;;;;;5.46;66.54;101124.30;1766391;80;21414;-68
2021/11/13 04:05:23;;;;;;;34.00;21.62;;;;;;;5.45;66.58;101134.39;1766210;80;20993;-69
2021/11/13 04:07:49;;;;;;;30.37;20.23;;;;;;;5.42;66.68;101127.53;1769151;80;21825;-69
2021/11/13 04:10:17;;;;;;;33.60;22.67;;;;;;;5.40;66.70;101127.19;1757184;80;21028;-69
2021/11/13 04:12:44;;;;;;;32.33;22.50;;;;;;;5.36;66.83;101132.19;1766543;80;21012;-70
2021/11/13 04:15:13;;;;;;;34.30;23.32;;;;;;;5.38;66.93;101131.66;1779044;80;21000;-69
2021/11/13 04:17:39;;;;;;;42.00;24.60;;;;;;;5.37;66.97;101128.64;1783605;80;21431;-69
2021/11/13 04:20:08;;;;;;;35.48;23.07;;;;;;;5.37;66.95;101128.19;1771726;80;22500;-69
2021/11/13 04:22:37;;;;;;;34.90;23.92;;;;;;;5.37;66.98;101126.03;1769980;80;20993;-69
2021/11/13 04:25:04;;;;;;;34.18;22.40;;;;;;;5.37;67.00;101128.64;1780842;80;20996;-69
2021/11/13 04:27:31;;;;;;;32.58;20.92;;;;;;;5.37;66.95;101128.64;1775689;80;20941;-69
2021/11/13 04:29:59;;;;;;;29.00;20.27;;;;;;;5.35;66.91;101126.10;1763388;80;21032;-69
2021/11/13 04:32:29;;;;;;;36.60;22.93;;;;;;;5.35;66.90;101126.56;1767492;80;21095;-69
2021/11/13 04:37:23;;;;;;;44.35;24.23;;;;;;;5.28;66.97;101136.45;1753119;81;21014;-69
2021/11/13 04:39:49;;;;;;;41.58;24.82;;;;;;;5.24;66.95;101132.30;1773077;80;20965;-68
2021/11/13 04:42:16;;;;;;;42.60;26.55;;;;;;;5.22;67.05;101138.53;1757731;80;20988;-67
2021/11/13 04:44:44;;;;;;;47.43;28.77;;;;;;;5.17;67.15;101139.56;1755329;80;21462;-68
2021/11/13 04:47:11;;;;;;;41.58;26.75;;;;;;;5.14;67.13;101141.02;1753053;81;20987;-68
2021/11/13 04:49:38;;;;;;;40.90;26.12;;;;;;;5.08;67.08;101142.59;1769864;80;20945;-70
2021/11/13 04:52:06;;;;;;;39.88;25.12;;;;;;;5.00;67.13;101142.08;1773262;80;21055;-69
2021/11/13 04:54:34;;;;;;;43.35;28.52;;;;;;;4.95;67.27;101149.30;1753815;80;20999;-68
2021/11/13 04:57:01;;;;;;;48.13;32.73;;;;;;;4.89;67.36;101154.79;1745502;81;21817;-69
2021/11/13 05:02:08;;;;;;;60.43;37.67;;;;;;;4.76;67.31;101162.78;1735995;80;21023;-68
2021/11/13 05:04:35;;;;;;;55.95;37.40;;;;;;;4.68;67.41;101157.88;1725891;81;21450;-68
2021/11/13 05:07:02;;;;;;;56.18;36.58;;;;;;;4.63;67.52;101169.44;1724243;81;21443;-69
2021/11/13 05:09:28;;;;;;;58.83;34.85;;;;;;;4.59;67.72;101173.50;1738820;81;22670;-69
2021/11/13 05:11:55;;;;;;;61.00;38.65;;;;;;;4.60;67.90;101178.27;1724200;81;21016;-69
2021/11/13 05:14:21;;;;;;;74.00;47.25;;;;;;;4.58;67.99;101180.95;1750929;81;20960;-69
2021/11/13 05:16:48;;;;;;;90.47;54.75;;;;;;;4.55;68.02;101188.94;1753527;81;21055;-69
2021/11/13 05:19:14;;;;;;;70.25;42.70;;;;;;;4.53;68.09;101197.74;1752680;81;21004;-69
2021/11/13 05:21:41;;;;;;;74.85;46.20;;;;;;;4.54;68.32;101195.55;1735002;81;22198;-68
2021/11/13 05:24:09;;;;;;;77.00;48.92;;;;;;;4.53;68.43;101203.83;1734000;81;20956;-68
2021/11/13 05:26:35;;;;;;;92.78;59.18;;;;;;;4.55;68.45;101202.02;1753424;81;21479;-69
2021/11/13 05:29:01;;;;;;;104.15;61.88;;;;;;;4.55;68.48;101204.64;1732717;81;21014;-68
2021/11/13 05:31:28;;;;;;;104.25;64.10;;;;;;;4.54;68.54;101208.17;1753315;81;21671;-68
2021/11/13 05:33:55;;;;;;;111.37;67.65;;;;;;;4.55;68.62;101212.48;1743096;81;22649;-68
2021/11/13 05:36:22;;;;;;;89.30;56.48;;;;;;;4.58;68.74;101219.35;1746593;81;20990;-69
2021/11/13 05:38:48;;;;;;;93.50;56.68;;;;;;;4.60;68.85;101223.59;1747122;80;20960;-69
2021/11/13 05:41:16;;;;;;;91.97;59.25;;;;;;;4.62;68.97;101220.91;1752998;81;21041;-69
2021/11/13 05:43:43;;;;;;;96.37;58.25;;;;;;;4.64;69.01;101225.66;1732565;81;20998;-69
2021/11/13 05:46:09;;;;;;;88.75;55.73;;;;;;;4.65;69.10;101224.73;1724216;82;21779;-68
2021/11/13 05:48:37;;;;;;;87.60;53.98;;;;;;;4.67;69.16;101221.59;1725677;81;21019;-68
2021/11/13 05:51:04;;;;;;;72.12;45.38;;;;;;;4.72;69.24;101231.86;1725908;81;21471;-67
2021/11/13 05:53:31;;;;;;;56.80;35.63;;;;;;;4.77;69.28;101231.22;1712174;83;20964;-69
2021/11/13 05:55:57;;;;;;;55.92;36.15;;;;;;;4.77;69.24;101225.98;1734127;81;20988;-68
2021/11/13 05:58:24;;;;;;;50.98;32.33;;;;;;;4.76;69.35;101232.14;1736023;81;22840;-69
2021/11/13 06:00:50;;;;;;;52.67;30.88;;;;;;;4.82;69.39;101239.72;1736573;81;20967;-69
2021/11/13 06:03:17;;;;;;;47.73;30.20;;;;;;;4.87;69.37;101236.46;1725291;81;20975;-69
2021/11/13 06:05:45;;;;;;;40.60;27.67;;;;;;;4.92;69.39;101241.03;1742379;81;21022;-68
2021/11/13 06:08:11;;;;;;;42.00;28.30;;;;;;;4.94;69.25;101236.61;1744748;81;20988;-67
2021/11/13 06:10:38;;;;;;;39.00;26.10;;;;;;;4.96;69.19;101243.93;1745518;81;21840;-68
2021/11/13 06:13:08;;;;;;;38.05;23.65;;;;;;;4.99;69.25;101239.86;1736386;81;21042;-68
2021/11/13 06:15:35;;;;;;;38.70;24.20;;;;;;;5.04;69.17;101248.39;1746497;80;20995;-68
2021/11/13 06:18:01;;;;;;;33.67;22.30;;;;;;;5.05;68.97;101248.78;1733925;81;21007;-67
2021/11/13 06:20:28;;;;;;;38.02;23.52;;;;;;;5.08;68.89;101248.64;1738634;81;21108;-67
2021/11/13 06:22:55;;;;;;;37.95;23.42;;;;;;;5.11;68.83;101255.50;1761630;80;21885;-67
2021/11/13 06:25:22;;;;;;;35.45;23.65;;;;;;;5.15;68.76;101268.88;1761571;81;20944;-68
2021/11/13 06:27:48;;;;;;;39.75;22.22;;;;;;;5.18;68.77;101259.57;1755794;80;21039;-67
2021/11/13 06:30:16;;;;;;;41.10;25.43;;;;;;;5.24;68.72;101265.02;1741201;81;20994;-68
2021/11/13 06:32:43;;;;;;;36.45;24.35;;;;;;;5.29;68.79;101273.52;1746548;81;21117;-68
2021/11/13 06:35:10;;;;;;;41.20;27.17;;;;;;;5.34;68.86;101270.25;1761759;80;21807;-66
2021/11/13 06:37:38;;;;;;;43.08;26.68;;;;;;;5.42;68.83;101273.39;1741709;81;21323;-66
2021/11/13 06:40:06;;;;;;;45.10;26.73;;;;;;;5.51;68.76;101271.68;1732046;81;21006;-65
2021/11/13 06:42:35;;;;;;;40.48;25.82;;;;;;;5.57;68.53;101274.02;1749792;82;21471;-68
2021/11/13 06:45:01;;;;;;;38.90;26.07;;;;;;;5.62;68.35;101274.67;1747515;81;20956;-67
2021/11/13 06:47:29;;;;;;;42.25;27.35;;;;;;;5.66;68.26;101274.91;1747867;81;20923;-67
2021/11/13 06:49:57;;;;;;;35.30;23.87;;;;;;;5.73;68.20;101271.57;1747692;81;21330;-67
2021/11/13 06:52:24;;;;;;;38.05;23.38;;;;;;;5.77;68.01;101271.81;1739279;81;21050;-66
2021/11/13 06:54:50;;;;;;;37.75;22.70;;;;;;;5.81;67.97;101269.92;1739248;81;21031;-67
2021/11/13 06:57:16;;;;;;;36.63;23.52;;;;;;;5.87;67.89;101270.94;1760765;80;21028;-67
2021/11/13 06:59:43;;;;;;;46.35;27.00;;;;;;;5.90;67.80;101274.31;1764354;80;21888;-68
2021/11/13 07:02:10;;;;;;;36.45;24.72;;;;;;;5.93;67.69;101276.79;1763726;80;21029;-68
2021/11/13 07:04:36;;;;;;;38.98;23.10;;;;;;;5.96;67.58;101275.33;1761304;80;21004;-66
2021/11/13 07:07:03;;;;;;;35.43;22.22;;;;;;;5.99;67.57;101274.36;1775097;80;21016;-67
2021/11/13 07:09:30;;;;;;;35.78;22.65;;;;;;;6.02;67.66;101274.21;1773619;80;20992;-68
2021/11/13 07:11:56;;;;;;;35.70;23.20;;;;;;;6.06;67.70;101275.76;1785091;80;21831;-66
2021/11/13 07:14:23;;;;;;;42.62;25.45;;;;;;;6.12;67.70;101275.48;1775394;80;21079;-67
2021/11/13 07:16:51;;;;;;;39.55;23.07;;;;;;;6.22;67.76;101274.13;1776496;80;21412;-67
2021/11/13 07:19:18;;;;;;;40.03;25.08;;;;;;;6.34;67.41;101274.47;1782537;80;21016;-67
2021/11/13 07:21:45;;;;;;;41.35;22.50;;;;;;;6.43;67.19;101273.57;1774142;80;21000;-68
2021/11/13 07:24:12;;;;;;;32.40;20.48;;;;;;;6.55;67.01;101267.72;1782649;80;21837;-68
2021/11/13 07:26:39;;;;;;;33.98;19.87;;;;;;;6.68;66.74;101273.25;1703780;80;21421;-66
2021/11/13 07:29:09;;;;;;;35.17;21.65;;;;;;;6.77;66.36;101264.92;1761409;80;20981;-69
2021/11/13 07:31:37;;;;;;;27.22;18.07;;;;;;;6.87;65.96;101275.36;1770971;80;21306;-67
2021/11/13 07:34:05;;;;;;;28.07;18.17;;;;;;;6.93;65.58;101276.81;1761230;81;21035;-69
2021/11/13 07:36:32;;;;;;;25.88;15.58;;;;;;;6.99;65.20;101276.98;1774553;80;21838;-68
2021/11/13 07:38:59;;;;;;;23.02;15.70;;;;;;;7.05;64.88;101272.75;1789487;80;21524;-68
2021/11/13 07:41:25;;;;;;;20.82;13.62;;;;;;;7.15;64.59;101271.35;1772759;80;21566;-67
2021/11/13 07:43:52;;;;;;;19.30;12.28;;;;;;;7.24;64.21;101266.94;1774173;80;21099;-66
2021/11/13 07:46:19;;;;;;;19.80;11.83;;;;;;;7.31;63.68;101269.61;1780651;80;21028;-66
2021/11/13 07:48:45;;;;;;;20.20;12.70;;;;;;;7.40;63.24;101274.40;1770559;79;21824;-66
2021/11/13 07:51:12;;;;;;;24.15;15.63;;;;;;;7.49;63.00;101280.95;1779011;80;21020;-68
2021/11/13 07:53:38;;;;;;;20.12;13.40;;;;;;;7.50;62.32;101283.97;1786319;80;21071;-69
2021/11/13 07:56:05;;;;;;;22.15;12.58;;;;;;;7.49;61.95;101290.63;1774396;80;21016;-66
2021/11/13 07:58:32;;;;;;;16.82;11.95;;;;;;;7.46;61.67;101289.02;1761516;80;21167;-69
2021/11/13 08:00:59;;;;;;;16.90;11.38;;;;;;;7.47;61.70;101292.02;1760443;80;22431;-68
2021/11/13 08:03:25;;;;;;;17.98;12.55;;;;;;;7.51;61.65;101296.18;1767095;80;21072;-70
2021/11/13 08:05:54;;;;;;;20.45;11.88;;;;;;;7.53;61.42;101294.34;1763907;80;34690;-68
2021/11/13 08:08:21;;;;;;;17.73;12.18;;;;;;;7.55;60.91;101291.63;1765000;80;21006;-68
2021/11/13 08:10:49;;;;;;;24.20;15.70;;;;;;;7.51;61.00;101292.23;1739169;81;21047;-69
2021/11/13 08:13:19;;;;;;;21.45;14.63;;;;;;;7.46;60.88;101296.44;1765302;80;21041;-68
2021/11/13 08:15:48;;;;;;;19.95;13.15;;;;;;;7.43;60.77;101294.41;1749328;81;21032;-70
2021/11/13 08:18:15;;;;;;;21.20;12.95;;;;;;;7.46;61.07;101292.95;1754961;81;20961;-69
2021/11/13 08:20:42;;;;;;;17.75;12.53;;;;;;;7.54;61.01;101288.16;1771472;80;21455;-66
2021/11/13 08:23:10;;;;;;;21.02;13.28;;;;;;;7.63;61.06;101289.45;1762956;81;20995;-65
2021/11/13 08:25:39;;;;;;;24.63;15.08;;;;;;;7.74;60.93;101291.90;1779228;80;22652;-67
2021/11/13 08:28:06;;;;;;;20.32;13.45;;;;;;;7.84;60.86;101297.98;1771632;80;21067;-69
2021/11/13 08:30:33;;;;;;;19.95;12.53;;;;;;;7.95;60.73;101290.37;1731511;82;21483;-67
2021/11/13 08:33:00;;;;;;;19.07;11.85;;;;;;;8.06;60.48;101285.84;1732419;81;21400;-69
2021/11/13 08:35:27;;;;;;;20.23;11.85;;;;;;;8.14;60.12;101281.86;1717228;83;20985;-65
2021/11/13 08:37:53;;;;;;;18.27;11.93;;;;;;;8.20;59.62;101287.23;1764319;80;21839;-68
2021/11/13 08:40:20;;;;;;;22.67;13.78;;;;;;;8.26;59.69;101293.02;1777161;80;20925;-67
2021/11/13 08:42:47;;;;;;;22.87;15.40;;;;;;;8.35;59.45;101290.85;1781438;80;20975;-72
2021/11/13 08:45:14;;;;;;;22.10;14.63;;;;;;;8.42;59.43;101289.11;1761154;81;21463;-69
2021/11/13 08:47:43;;;;;;;20.65;13.98;;;;;;;8.48;59.45;101290.53;1764639;81;20992;-68
2021/11/13 08:50:17;;;;;;;22.87;14.63;;;;;;;8.56;59.37;101293.59;1763601;80;21801;-69
2021/11/13 08:52:43;;;;;;;23.77;15.33;;;;;;;8.59;59.23;101287.70;1738418;82;21095;-68
2021/11/13 08:55:12;;;;;;;23.07;15.35;;;;;;;8.68;59.34;101285.45;1788763;80;21209;-69
2021/11/13 08:57:42;;;;;;;24.07;16.15;;;;;;;8.73;59.37;101282.11;1805480;79;20989;-69
2021/11/13 09:00:11;;;;;;;21.00;15.23;;;;;;;8.78;59.50;101281.36;1792387;80;20984;-69
2021/11/13 09:02:38;;;;;;;20.95;15.40;;;;;;;8.86;59.74;101281.30;1789446;80;22456;-69
2021/11/13 09:05:06;;;;;;;22.62;15.80;;;;;;;8.93;59.59;101277.86;1791311;80;21451;-69
2021/11/13 09:07:33;;;;;;;20.52;14.83;;;;;;;9.06;59.65;101277.51;1761180;81;21091;-69
2021/11/13 09:09:59;;;;;;;22.77;14.95;;;;;;;9.20;59.40;101277.19;1761066;81;20968;-69
2021/11/13 09:12:28;;;;;;;22.70;15.25;;;;;;;9.26;59.26;101276.80;1774938;80;20937;-69
2021/11/13 09:15:05;;;;;;;22.82;15.20;;;;;;;9.36;59.21;101277.51;1791417;80;21166;-69
2021/11/13 09:17:32;;;;;;;22.67;15.15;;;;;;;9.47;58.88;101275.54;1761204;80;20941;-68
2021/11/13 09:19:58;;;;;;;24.23;15.60;;;;;;;9.52;58.35;101280.52;1761523;80;20950;-69
2021/11/13 09:22:25;;;;;;;23.80;15.60;;;;;;;9.52;58.45;101274.77;1766317;80;21554;-69
2021/11/13 09:24:53;;;;;;;24.45;15.63;;;;;;;9.63;58.48;101285.98;1792646;79;21024;-69
2021/11/13 09:27:19;;;;;;;22.48;15.35;;;;;;;9.72;58.26;101281.00;1763774;80;22200;-69
2021/11/13 09:29:47;;;;;;;20.60;15.35;;;;;;;9.82;58.08;101290.52;1755452;81;20988;-69
2021/11/13 09:32:13;;;;;;;24.47;15.38;;;;;;;9.92;57.85;101285.52;1766513;80;21040;-69
2021/11/13 09:34:40;;;;;;;21.40;15.10;;;;;;;10.01;57.74;101279.66;1761122;81;20961;-69
2021/11/13 09:37:07;;;;;;;23.67;15.05;;;;;;;10.14;57.57;101277.97;1762489;80;21004;-69
2021/11/13 09:39:34;;;;;;;26.60;15.88;;;;;;;10.26;57.19;101279.02;1757977;80;22217;-69
2021/11/13 09:42:01;;;;;;;20.68;15.18;;;;;;;10.30;56.64;101281.34;1765325;80;21397;-69
2021/11/13 09:44:28;;;;;;;21.62;15.68;;;;;;;10.43;56.50;101281.91;1792486;79;20956;-68
2021/11/13 09:46:59;;;;;;;22.27;15.50;;;;;;;10.52;56.56;101279.52;1772448;80;21009;-68
2021/11/13 09:49:28;;;;;;;23.47;15.68;;;;;;;10.64;56.07;101280.51;1755671;81;21052;-69
2021/11/13 09:51:56;;;;;;;21.02;14.98;;;;;;;10.71;56.05;101275.20;1755772;81;22493;-68
2021/11/13 09:54:23;;;;;;;21.20;15.38;;;;;;;10.81;55.68;101276.77;1755607;81;21120;-69
2021/11/13 09:56:50;;;;;;;19.95;15.08;;;;;;;10.93;55.56;101269.34;1760792;80;20965;-68
2021/11/13 09:59:16;;;;;;;21.93;14.70;;;;;;;11.09;55.26;101272.62;1753570;81;20980;-68
2021/11/13 10:01:43;;;;;;;19.87;15.28;;;;;;;11.18;54.91;101270.69;1753912;81;21023;-68
2021/11/13 10:04:09;;;;;;;18.73;14.20;;;;;;;11.29;54.80;101269.11;1753565;81;21847;-69
2021/11/13 10:06:36;;;;;;;27.58;18.27;;;;;;;11.45;54.42;101275.90;1747071;81;21025;-69
2021/11/13 10:09:02;;;;;;;23.52;15.23;;;;;;;11.59;54.07;101271.48;1747901;81;20955;-68
2021/11/13 10:11:30;;;;;;;18.42;14.20;;;;;;;11.67;53.39;101275.25;1735893;81;21417;-69
2021/11/13 10:13:59;;;;;;;21.12;14.23;;;;;;;11.69;52.50;101277.34;1733260;82;20961;-69
2021/11/13 10:16:34;;;;;;;18.67;14.13;;;;;;;11.61;52.45;101277.02;1702521;83;21004;-68
2021/11/13 10:19:11;;;;;;;19.52;14.43;;;;;;;11.63;52.61;101278.23;1737603;81;21050;-68
2021/11/13 10:21:39;;;;;;;18.60;13.38;;;;;;;11.72;52.45;101276.27;1728582;82;21441;-68
2021/11/13 10:24:19;;;;;;;20.40;14.78;;;;;;;11.81;52.38;101275.66;1729007;82;21071;-67
2021/11/13 10:26:54;;;;;;;23.27;13.90;;;;;;;11.94;52.38;101277.80;1755577;80;20988;-67
2021/11/13 10:29:27;;;;;;;;;;;;;;;12.08;52.17;101279.97;1736693;81;22552;-68
2021/11/13 10:31:57;;;;;;;20.55;14.23;;;;;;;12.17;51.58;101285.94;1760732;81;20898;-69
2021/11/13 10:34:34;;;;;;;20.82;14.75;;;;;;;12.18;50.94;101286.30;1733632;82;21340;-69
2021/11/13 10:37:06;;;;;;;19.45;14.25;;;;;;;12.08;51.26;101282.62;1764021;81;20960;-69
2021/11/13 10:39:36;;;;;;;19.37;13.45;;;;;;;12.18;51.57;101285.82;1733097;82;21089;-68
2021/11/13 10:42:12;;;;;;;19.32;13.80;;;;;;;12.39;51.34;101282.58;1740017;81;21791;-68
2021/11/13 10:44:49;;;;;;;19.02;14.15;;;;;;;12.54;50.92;101280.96;1733991;82;20944;-68
2021/11/13 10:47:22;;;;;;;21.30;13.88;;;;;;;12.64;50.92;101274.98;1719655;82;20977;-69
2021/11/13 10:49:51;;;;;;;20.17;13.70;;;;;;;12.67;50.32;101276.11;1747151;82;21441;-69
2021/11/13 10:52:20;;;;;;;18.17;13.30;;;;;;;12.70;49.97;101272.74;1748058;81;21444;-69
2021/11/13 10:54:50;;;;;;;21.75;14.60;;;;;;;12.76;50.00;101271.45;1733368;82;21801;-69
2021/11/13 10:57:29;;;;;;;18.17;13.48;;;;;;;12.77;50.04;101265.19;1736799;80;21024;-69
2021/11/13 10:59:56;;;;;;;21.30;13.95;;;;;;;12.87;50.20;101266.20;1758267;81;20989;-69
2021/11/13 11:02:24;;;;;;;19.92;13.10;;;;;;;13.09;49.59;101270.72;1732722;80;21106;-68
2021/11/13 11:04:51;;;;;;;16.85;12.80;;;;;;;13.19;49.18;101265.11;1794243;80;21067;-69
2021/11/13 11:07:24;;;;;;;23.67;13.75;;;;;;;13.31;49.15;101266.82;1795425;80;21799;-68
2021/11/13 11:10:12;;;;;;;16.67;12.82;;;;;;;13.40;48.67;101267.92;1773346;80;20947;-69
2021/11/13 11:12:40;;;;;;;19.02;13.00;;;;;;;13.38;48.12;101265.39;1786354;80;21359;-68
2021/11/13 11:15:13;;;;;;;18.07;13.35;;;;;;;13.41;48.40;101260.33;1795216;80;21004;-68
2021/11/13 11:17:46;;;;;;;19.07;12.80;;;;;;;13.47;48.00;101255.88;1795569;80;20921;-68
2021/11/13 11:20:15;;;;;;;20.40;13.10;;;;;;;13.51;47.85;101259.12;1795723;80;21865;-68
2021/11/13 11:22:42;;;;;;;17.15;12.33;;;;;;;13.59;47.95;101255.41;1773916;80;21458;-69
2021/11/13 11:25:16;;;;;;;17.25;12.65;;;;;;;13.75;47.31;101258.07;1764092;81;21326;-69